PA70 weather

Fetters Construction Airport
Downingtown, Pennsylvania, United States

Public forecast

Using degrees Fahrenheit for public forecast. Weather courtesy of forecast.io.

METAR (pilot weather report)

Closest report is Brandywine Airport, 8.5 nm (15.8 km) SE. Retrieved 2019/07/20 08:35 UTC (23 minutes ago):

KOQN 200835Z AUTO 00000KT 7SM CLR 25/23 A2991 RMK AO2

TAF (pilot weather forecast)

Closest forecast is Reading Regional Carl A Spaatz Field, 20.8 nm (38.5 km) NW. Retrieved 2019/07/20 06:36 UTC (2 hours ago):

TAF KRDG 200532Z 2006/2106 VRB03KT P6SM SCT250 FM201400 26008KT P6SM SCT045 FM210100 VRB03KT P6SM SCT200